Time;durP1;ratioP1;P1;durP2;ratioP2;P2;SDS_P1;SDS_P2;PMS_P1;PMS_P2;Temp;Humidity;BMP_temperature;BMP_pressure;BME280_temperature;BME280_humidity;BME280_pressure;Samples;Min_cycle;Max_cycle;Signal;HPM_P1;HPM_P2
2022/06/04 00:00:11;;;;;;;10.70;4.40;;;13.00;99.90;;;;;;5055186;28;20124;-68
2022/06/04 00:02:39;;;;;;;8.50;4.60;;;13.00;99.90;;;;;;5055173;28;20033;-68
2022/06/04 00:05:06;;;;;;;9.05;4.00;;;13.00;99.90;;;;;;5055096;28;20033;-68
2022/06/04 00:07:32;;;;;;;9.63;4.90;;;13.00;99.90;;;;;;5054835;28;20041;-68
2022/06/04 00:15:29;;;;;;;9.45;4.60;;;12.90;99.90;;;;;;5054866;28;20135;-68
2022/06/04 00:17:54;;;;;;;8.38;4.38;;;12.90;99.90;;;;;;5054685;28;20048;-68
2022/06/04 00:20:21;;;;;;;9.18;4.70;;;12.90;99.90;;;;;;5055049;28;20040;-68
2022/06/04 00:22:46;;;;;;;10.20;4.70;;;12.90;99.90;;;;;;5055042;28;20110;-68
2022/06/04 00:25:15;;;;;;;10.73;4.85;;;12.80;99.90;;;;;;5054977;28;20582;-68
2022/06/04 00:27:41;;;;;;;9.93;4.63;;;12.80;99.90;;;;;;5055940;28;20057;-68
2022/06/04 00:30:08;;;;;;;9.55;4.75;;;12.80;99.90;;;;;;5054611;28;20510;-68
2022/06/04 00:32:34;;;;;;;11.48;5.13;;;12.80;99.90;;;;;;5054595;28;20045;-68
2022/06/04 00:35:06;;;;;;;12.82;4.70;;;12.80;99.90;;;;;;5054580;28;20513;-68
2022/06/04 00:37:33;;;;;;;9.07;4.65;;;12.70;99.90;;;;;;5054421;28;20167;-68
2022/06/04 00:39:59;;;;;;;10.63;5.10;;;12.70;99.90;;;;;;5054432;28;20119;-68
2022/06/04 00:42:25;;;;;;;12.82;5.10;;;12.60;99.90;;;;;;5054444;28;20033;-68
2022/06/04 00:45:19;;;;;;;11.40;5.53;;;12.70;99.90;;;;;;5054717;28;20094;-68
2022/06/04 00:47:44;;;;;;;;;;;12.70;99.90;;;;;;5054691;28;20048;-68
2022/06/04 00:50:12;;;;;;;14.07;5.00;;;12.50;99.90;;;;;;5054608;28;19918;-68
2022/06/04 00:52:37;;;;;;;11.32;5.22;;;12.50;99.90;;;;;;5054564;28;20053;-68
2022/06/04 00:55:06;;;;;;;12.63;5.10;;;12.50;99.90;;;;;;5054205;28;20532;-68
2022/06/04 00:58:18;;;;;;;11.05;5.30;;;12.50;99.90;;;;;;5053997;28;20060;-68
2022/06/04 01:01:05;;;;;;;14.48;5.63;;;12.50;99.90;;;;;;5054185;28;20485;-68
2022/06/04 01:04:09;;;;;;;12.10;5.20;;;12.40;99.90;;;;;;5053624;28;20041;-68
2022/06/04 01:06:55;;;;;;;11.38;5.28;;;12.40;99.90;;;;;;5010449;28;20564;-68
2022/06/04 01:09:47;;;;;;;13.85;5.43;;;12.40;99.90;;;;;;5053364;28;20041;-68
2022/06/04 01:12:35;;;;;;;12.00;5.30;;;12.40;99.90;;;;;;5053896;28;20041;-67
2022/06/04 01:15:16;;;;;;;10.07;5.20;;;12.40;99.90;;;;;;5037242;28;20386;-68
2022/06/04 01:18:02;;;;;;;11.68;5.85;;;12.30;99.90;;;;;;5037076;28;20045;-68
2022/06/04 01:20:56;;;;;;;10.10;5.30;;;12.40;99.90;;;;;;5037121;28;20571;-68
2022/06/04 01:23:58;;;;;;;11.88;5.43;;;12.30;99.90;;;;;;5053988;28;20033;-68
2022/06/04 01:26:42;;;;;;;14.55;5.80;;;12.30;99.90;;;;;;5053578;28;20048;-68
2022/06/04 01:29:14;;;;;;;13.63;5.55;;;12.30;99.90;;;;;;5053516;28;20489;-68
2022/06/04 01:31:56;;;;;;;14.50;5.63;;;12.30;99.90;;;;;;5053593;28;20131;-68
2022/06/04 01:34:29;;;;;;;13.77;5.22;;;12.30;99.90;;;;;;5053467;28;20405;-68
2022/06/04 01:37:11;;;;;;;11.85;5.93;;;12.20;99.90;;;;;;5053338;28;20045;-68
2022/06/04 01:42:26;;;;;;;15.10;6.68;;;12.20;99.90;;;;;;5053564;28;20048;-68
2022/06/04 01:44:55;;;;;;;16.13;5.53;;;12.20;99.90;;;;;;5036585;28;20123;-68
2022/06/04 01:47:22;;;;;;;14.90;6.03;;;12.20;99.90;;;;;;5053192;28;20060;-68
2022/06/04 01:49:52;;;;;;;12.18;6.50;;;12.20;99.90;;;;;;5053163;28;20052;-68
2022/06/04 01:52:20;;;;;;;13.00;6.90;;;12.20;99.90;;;;;;5053724;28;20044;-68
2022/06/04 01:55:01;;;;;;;12.93;6.72;;;12.20;99.90;;;;;;5053251;28;20574;-68
2022/06/04 01:57:42;;;;;;;14.35;6.97;;;12.20;99.90;;;;;;5037142;28;20178;-69
2022/06/04 02:00:33;;;;;;;17.98;7.40;;;12.10;99.90;;;;;;5053008;28;20052;-69
2022/06/04 02:03:09;;;;;;;15.93;7.40;;;12.00;99.90;;;;;;5052918;28;20076;-69
2022/06/04 02:05:44;;;;;;;15.43;7.25;;;12.00;99.90;;;;;;5052911;28;20048;-69
2022/06/04 02:08:14;;;;;;;13.80;8.07;;;12.00;99.90;;;;;;5052684;28;20045;-69
2022/06/04 02:10:49;;;;;;;13.43;7.55;;;12.00;99.90;;;;;;5036169;28;20550;-69
2022/06/04 02:13:16;;;;;;;16.73;7.80;;;12.00;99.90;;;;;;5052783;28;20041;-69
2022/06/04 02:15:53;;;;;;;15.93;7.78;;;12.00;99.90;;;;;;5052878;28;20051;-69
2022/06/04 02:18:19;;;;;;;17.67;7.80;;;12.00;99.90;;;;;;5052527;28;20484;-69
2022/06/04 02:20:44;;;;;;;16.48;8.30;;;11.90;99.90;;;;;;5053816;28;20124;-69
2022/06/04 02:23:10;;;;;;;14.55;8.55;;;11.90;99.90;;;;;;5052503;28;20033;-69
2022/06/04 02:25:36;;;;;;;13.98;8.10;;;11.90;99.90;;;;;;5052500;28;20041;-69
2022/06/04 02:28:06;;;;;;;18.00;8.15;;;11.90;99.90;;;;;;5035751;28;20037;-69
2022/06/04 02:30:43;;;;;;;14.10;7.68;;;11.90;99.90;;;;;;5052620;28;20458;-69
2022/06/04 02:33:13;;;;;;;12.80;8.23;;;11.90;99.90;;;;;;5052385;28;20045;-69
2022/06/04 02:35:47;;;;;;;13.63;7.90;;;11.80;99.90;;;;;;5052628;28;20562;-69
2022/06/04 02:38:33;;;;;;;15.07;8.32;;;11.80;99.90;;;;;;5035547;28;20055;-69
2022/06/04 02:41:19;;;;;;;14.70;8.40;;;11.80;99.90;;;;;;5052283;28;20041;-69
2022/06/04 02:43:52;;;;;;;16.52;8.35;;;11.80;99.90;;;;;;5035678;28;20045;-69
2022/06/04 02:46:29;;;;;;;;;;;11.80;99.90;;;;;;5052624;28;20508;-69
2022/06/04 02:49:09;;;;;;;12.98;7.68;;;11.70;99.90;;;;;;5052170;28;19920;-69
2022/06/04 02:51:39;;;;;;;14.95;7.90;;;11.70;99.90;;;;;;5035449;28;20151;-69
2022/06/04 02:54:13;;;;;;;14.38;8.70;;;11.70;99.90;;;;;;5052297;28;20041;-68
2022/06/04 02:56:41;;;;;;;16.00;8.43;;;11.70;99.90;;;;;;5051978;28;20052;-69
2022/06/04 02:59:09;;;;;;;15.35;8.57;;;11.70;99.90;;;;;;5051893;28;20124;-69
2022/06/04 03:01:40;;;;;;;15.15;8.38;;;11.70;99.90;;;;;;5051936;28;20488;-69
2022/06/04 03:04:08;;;;;;;15.32;8.32;;;11.70;99.90;;;;;;5051951;28;20033;-69
2022/06/04 03:06:33;;;;;;;15.50;8.40;;;11.70;99.90;;;;;;5035618;28;20049;-69
2022/06/04 03:09:03;;;;;;;18.73;8.93;;;11.60;99.90;;;;;;5051828;28;20386;-68
2022/06/04 03:11:29;;;;;;;14.38;8.50;;;11.60;99.90;;;;;;5051852;28;20501;-68
2022/06/04 03:13:54;;;;;;;17.23;8.65;;;11.60;99.90;;;;;;5051814;28;20044;-68
2022/06/04 03:16:20;;;;;;;15.07;8.88;;;11.50;99.90;;;;;;5051977;28;20126;-68
2022/06/04 03:18:46;;;;;;;18.95;8.65;;;11.60;99.90;;;;;;5051709;28;20045;-68
2022/06/04 03:21:12;;;;;;;14.88;7.93;;;11.60;99.90;;;;;;5051990;28;20037;-68
2022/06/04 03:23:38;;;;;;;17.48;9.45;;;11.50;99.90;;;;;;5051979;28;20032;-69
2022/06/04 03:26:05;;;;;;;16.00;8.30;;;11.50;99.90;;;;;;5051640;28;20047;-69
2022/06/04 03:28:31;;;;;;;15.23;8.52;;;11.50;99.90;;;;;;5055630;28;20041;-69
2022/06/04 03:30:57;;;;;;;15.45;7.10;;;11.50;99.90;;;;;;5055797;28;20119;-69
2022/06/04 03:33:22;;;;;;;12.52;8.02;;;11.50;99.90;;;;;;5055776;28;20136;-69
2022/06/04 03:35:48;;;;;;;17.00;8.90;;;11.50;99.90;;;;;;5055954;28;20044;-69
2022/06/04 03:38:14;;;;;;;12.90;8.02;;;11.50;99.90;;;;;;5038876;28;20481;-69
2022/06/04 03:40:40;;;;;;;16.38;7.82;;;11.40;99.90;;;;;;5056426;28;20037;-69
2022/06/04 03:43:05;;;;;;;16.77;8.55;;;11.40;99.90;;;;;;5055555;28;20040;-69
2022/06/04 03:45:31;;;;;;;15.25;7.85;;;11.40;99.90;;;;;;5055459;28;20405;-69
2022/06/04 03:47:57;;;;;;;20.35;8.00;;;11.40;99.90;;;;;;5039046;28;20064;-69
2022/06/04 03:50:25;;;;;;;13.15;7.35;;;11.40;99.90;;;;;;5055411;28;20045;-69
2022/06/04 03:52:51;;;;;;;15.85;7.32;;;11.40;99.90;;;;;;5055644;28;20516;-69
2022/06/04 03:55:19;;;;;;;13.30;7.05;;;11.40;99.90;;;;;;5055326;28;20048;-69
2022/06/04 03:57:50;;;;;;;15.18;7.63;;;11.40;99.90;;;;;;5055124;28;20417;-69
2022/06/04 04:00:23;;;;;;;14.30;7.20;;;11.40;99.90;;;;;;5055303;28;20029;-69
2022/06/04 04:02:52;;;;;;;15.38;7.07;;;11.40;99.90;;;;;;5055511;28;20064;-69
2022/06/04 04:05:21;;;;;;;15.57;6.78;;;11.50;99.90;;;;;;5055390;28;20060;-69
2022/06/04 04:07:47;;;;;;;18.92;7.05;;;11.50;99.90;;;;;;5054892;28;20127;-68
2022/06/04 04:10:14;;;;;;;13.00;6.63;;;11.50;99.90;;;;;;5055084;28;20052;-69
2022/06/04 04:12:40;;;;;;;13.93;7.20;;;11.50;99.90;;;;;;5055021;28;20052;-68
2022/06/04 04:15:07;;;;;;;17.90;6.15;;;11.60;99.90;;;;;;5054937;28;20049;-68
2022/06/04 04:17:36;;;;;;;11.95;6.78;;;11.60;99.90;;;;;;5038185;28;20501;-69
2022/06/04 04:20:04;;;;;;;13.77;5.78;;;11.60;99.90;;;;;;5055133;28;20076;-69
2022/06/04 04:22:29;;;;;;;13.77;5.85;;;11.70;99.90;;;;;;5056329;28;20045;-69
2022/06/04 04:24:55;;;;;;;11.43;5.78;;;11.60;99.90;;;;;;5038391;28;20047;-69
2022/06/04 04:27:21;;;;;;;10.63;5.75;;;11.70;99.90;;;;;;5054737;28;20048;-69
2022/06/04 04:29:46;;;;;;;10.07;5.07;;;11.70;99.90;;;;;;5054674;28;20087;-68
2022/06/04 04:32:12;;;;;;;10.52;5.28;;;11.70;99.90;;;;;;5054686;28;20500;-68
2022/06/04 04:34:38;;;;;;;11.68;5.57;;;11.70;99.90;;;;;;5054617;28;20072;-68
2022/06/04 04:37:03;;;;;;;12.57;5.80;;;11.80;99.90;;;;;;5054445;28;20080;-68
2022/06/04 04:39:29;;;;;;;7.97;5.65;;;11.80;99.90;;;;;;5054402;28;20090;-68
2022/06/04 04:41:55;;;;;;;11.32;5.25;;;11.80;99.90;;;;;;5037855;28;20405;-68
2022/06/04 04:44:21;;;;;;;11.35;4.97;;;11.80;99.90;;;;;;5054456;28;20040;-68
2022/06/04 04:46:49;;;;;;;10.73;5.03;;;11.90;99.90;;;;;;5055588;28;20045;-68
2022/06/04 04:49:15;;;;;;;7.88;4.75;;;11.90;99.90;;;;;;5054383;28;20170;-68
2022/06/04 04:51:40;;;;;;;11.25;4.97;;;11.90;99.90;;;;;;5054299;28;20127;-68
2022/06/04 04:54:06;;;;;;;10.15;4.75;;;12.00;99.90;;;;;;5054262;28;20047;-68
2022/06/04 04:56:32;;;;;;;10.27;4.72;;;12.00;99.90;;;;;;5054372;28;20049;-68
2022/06/04 04:58:57;;;;;;;6.60;3.80;;;12.10;99.90;;;;;;5055298;28;20444;-68
2022/06/04 05:01:26;;;;;;;10.82;4.68;;;12.10;99.90;;;;;;5054125;28;20045;-68
2022/06/04 05:03:52;;;;;;;10.20;4.43;;;12.20;99.90;;;;;;5054061;28;20044;-68
2022/06/04 05:06:19;;;;;;;8.10;4.38;;;12.20;99.90;;;;;;5054127;28;20037;-68
2022/06/04 05:08:47;;;;;;;9.05;3.63;;;12.20;99.90;;;;;;5053897;28;20041;-68
2022/06/04 05:11:19;;;;;;;8.50;4.00;;;12.20;99.90;;;;;;5053945;28;20516;-68
2022/06/04 05:13:49;;;;;;;9.98;4.47;;;12.20;99.90;;;;;;5053941;28;20045;-68
2022/06/04 05:16:24;;;;;;;13.75;4.13;;;12.30;99.90;;;;;;5054164;28;20049;-68
2022/06/04 05:18:50;;;;;;;9.05;4.30;;;12.40;99.90;;;;;;5053663;28;20128;-68
2022/06/04 05:21:21;;;;;;;10.27;4.15;;;12.40;99.90;;;;;;5054022;28;20043;-68
2022/06/04 05:23:48;;;;;;;8.77;3.80;;;12.40;99.90;;;;;;5037137;28;20082;-68
2022/06/04 05:26:14;;;;;;;7.47;4.28;;;12.50;99.90;;;;;;5053641;28;20076;-68
2022/06/04 05:28:39;;;;;;;8.95;4.00;;;12.60;99.90;;;;;;5053764;28;20048;-68
2022/06/04 05:31:05;;;;;;;8.07;4.18;;;12.60;99.90;;;;;;5053533;28;20041;-68
2022/06/04 05:33:31;;;;;;;7.15;3.63;;;12.60;99.90;;;;;;5053455;28;20080;-68
2022/06/04 05:35:56;;;;;;;8.73;3.95;;;12.70;99.90;;;;;;5053704;28;20045;-68
2022/06/04 05:38:22;;;;;;;8.82;4.07;;;12.70;99.90;;;;;;5053222;28;20382;-68
2022/06/04 05:40:48;;;;;;;6.20;3.92;;;12.80;99.90;;;;;;5053373;28;20435;-68
2022/06/04 05:43:14;;;;;;;9.50;3.58;;;12.80;99.90;;;;;;5055124;28;20041;-68
2022/06/04 05:45:39;;;;;;;8.70;4.05;;;12.80;99.90;;;;;;5053247;28;20037;-68
2022/06/04 05:48:05;;;;;;;6.80;3.60;;;12.80;99.90;;;;;;5053392;28;20071;-68
2022/06/04 05:50:31;;;;;;;9.80;3.90;;;12.90;99.90;;;;;;5052710;28;20128;-68
2022/06/04 05:52:56;;;;;;;7.10;3.65;;;12.90;99.90;;;;;;5036481;28;20132;-68
2022/06/04 05:55:22;;;;;;;5.63;3.53;;;13.00;99.90;;;;;;5053015;28;20036;-68
2022/06/04 05:57:48;;;;;;;7.82;3.65;;;13.10;99.90;;;;;;5052922;28;20072;-68
2022/06/04 06:00:14;;;;;;;8.45;3.70;;;13.20;99.90;;;;;;5053207;28;20098;-68
2022/06/04 06:02:40;;;;;;;7.47;3.83;;;13.20;99.90;;;;;;5052940;28;20049;-69
2022/06/04 06:05:05;;;;;;;8.63;3.75;;;13.30;99.90;;;;;;5052857;28;20041;-68
2022/06/04 06:07:31;;;;;;;6.57;3.30;;;13.40;99.90;;;;;;5052619;28;20408;-68
2022/06/04 06:09:57;;;;;;;8.90;3.83;;;13.40;99.90;;;;;;5053583;28;20048;-68
2022/06/04 06:12:23;;;;;;;6.00;3.50;;;13.50;99.90;;;;;;5052734;28;20037;-69
2022/06/04 06:14:49;;;;;;;7.70;4.30;;;13.50;99.90;;;;;;5052663;28;20049;-69
2022/06/04 06:17:14;;;;;;;7.07;3.60;;;13.50;99.90;;;;;;5052806;28;20045;-68
2022/06/04 06:19:40;;;;;;;9.93;4.28;;;13.50;99.90;;;;;;5052905;28;20477;-68
2022/06/04 06:22:05;;;;;;;8.32;4.07;;;13.50;99.90;;;;;;5053863;28;20450;-68
2022/06/04 06:24:31;;;;;;;10.90;4.30;;;13.50;99.90;;;;;;5052751;28;20039;-68
2022/06/04 06:26:59;;;;;;;5.25;3.67;;;13.60;99.90;;;;;;5052721;28;20043;-68
2022/06/04 06:29:28;;;;;;;5.63;3.63;;;13.70;99.90;;;;;;5052443;28;20047;-69
2022/06/04 06:31:55;;;;;;;6.65;3.40;;;13.70;99.90;;;;;;5052394;28;20068;-68
2022/06/04 06:34:22;;;;;;;10.02;4.40;;;13.80;99.90;;;;;;5052368;28;20052;-68
2022/06/04 06:36:48;;;;;;;6.72;3.92;;;13.90;99.90;;;;;;5052266;28;20087;-68
2022/06/04 06:39:14;;;;;;;6.03;3.65;;;13.90;99.90;;;;;;5052203;28;20049;-68
2022/06/04 06:41:40;;;;;;;5.93;3.90;;;13.90;99.90;;;;;;5035651;28;20040;-68
2022/06/04 06:44:06;;;;;;;7.15;3.63;;;14.00;99.90;;;;;;5052200;28;20044;-68
2022/06/04 06:46:39;;;;;;;5.55;3.65;;;14.10;99.90;;;;;;5053319;28;20048;-68
2022/06/04 06:49:12;;;;;;;8.07;4.25;;;14.10;99.90;;;;;;5052405;28;20056;-68
2022/06/04 06:51:50;;;;;;;6.95;4.30;;;14.10;99.90;;;;;;5052123;28;20041;-68
2022/06/04 06:54:17;;;;;;;7.22;3.70;;;14.20;99.90;;;;;;5052340;28;20040;-68
2022/06/04 06:56:45;;;;;;;6.85;3.75;;;14.30;99.90;;;;;;5053325;28;20147;-68
2022/06/04 06:59:12;;;;;;;6.70;3.30;;;14.40;99.90;;;;;;5051964;28;20049;-68
2022/06/04 07:01:38;;;;;;;9.07;4.30;;;14.50;99.90;;;;;;5051497;28;20076;-68
2022/06/04 07:04:04;;;;;;;6.28;4.00;;;14.60;99.90;;;;;;5051690;28;20076;-68
2022/06/04 07:06:33;;;;;;;6.72;3.70;;;14.70;99.90;;;;;;5051700;28;20037;-68
2022/06/04 07:09:00;;;;;;;5.25;3.65;;;14.80;99.90;;;;;;5052171;28;20080;-68
2022/06/04 07:11:26;;;;;;;6.47;3.50;;;14.90;99.90;;;;;;5051866;28;20037;-68
2022/06/04 07:13:52;;;;;;;5.30;3.25;;;15.00;99.90;;;;;;5035257;28;20115;-68
2022/06/04 07:16:19;;;;;;;5.13;3.75;;;15.20;99.90;;;;;;5052377;28;20032;-68
2022/06/04 07:18:45;;;;;;;6.85;3.50;;;15.30;99.90;;;;;;5052117;28;20515;-68
2022/06/04 07:21:10;;;;;;;6.72;3.58;;;15.50;99.90;;;;;;5051814;28;20049;-68
2022/06/04 07:23:37;;;;;;;5.28;3.67;;;15.60;99.90;;;;;;5051662;28;20037;-68
2022/06/04 07:26:03;;;;;;;5.68;3.40;;;15.80;99.90;;;;;;5051673;28;20044;-68
2022/06/04 07:28:29;;;;;;;7.20;3.58;;;15.90;99.90;;;;;;5035872;28;20540;-68
2022/06/04 07:30:56;;;;;;;7.93;3.47;;;15.90;99.90;;;;;;5051631;28;20056;-68
2022/06/04 07:33:22;;;;;;;7.15;3.50;;;15.80;99.90;;;;;;5051588;28;20045;-68
2022/06/04 07:35:49;;;;;;;7.72;3.50;;;15.70;99.90;;;;;;5051821;28;20043;-68
2022/06/04 07:38:15;;;;;;;5.60;3.30;;;15.80;99.90;;;;;;5051453;28;20124;-68
2022/06/04 07:40:41;;;;;;;7.07;3.85;;;15.70;99.90;;;;;;5051567;28;20040;-68
2022/06/04 07:43:07;;;;;;;8.20;3.47;;;15.70;99.90;;;;;;5051523;28;20536;-68
2022/06/04 07:45:34;;;;;;;7.60;3.53;;;15.70;99.90;;;;;;5051550;28;20080;-68
2022/06/04 07:48:00;;;;;;;6.80;3.67;;;15.70;99.90;;;;;;5051483;28;20048;-68
2022/06/04 07:50:26;;;;;;;5.97;3.40;;;15.80;99.90;;;;;;5051603;28;20091;-68
2022/06/04 07:52:51;;;;;;;8.80;3.55;;;15.90;99.90;;;;;;5051901;28;20057;-68
2022/06/04 07:55:17;;;;;;;6.22;3.97;;;16.10;99.90;;;;;;5051672;28;20080;-68
2022/06/04 07:57:43;;;;;;;5.85;3.38;;;16.30;99.90;;;;;;5051209;28;20069;-68
2022/06/04 08:00:09;;;;;;;7.93;3.95;;;16.50;99.90;;;;;;5051632;28;20033;-68
2022/06/04 08:02:35;;;;;;;7.22;3.80;;;16.80;99.90;;;;;;5051317;28;20493;-68
2022/06/04 08:05:01;;;;;;;5.57;3.65;;;16.90;99.90;;;;;;5051642;28;20040;-68
2022/06/04 08:07:27;;;;;;;9.18;3.30;;;17.10;99.90;;;;;;5051084;28;20413;-68
2022/06/04 08:09:53;;;;;;;5.13;3.47;;;17.20;99.90;;;;;;5051476;28;20041;-68
2022/06/04 08:12:19;;;;;;;6.78;3.55;;;17.30;99.90;;;;;;5051287;28;20052;-68
2022/06/04 08:14:46;;;;;;;7.90;3.97;;;17.30;99.90;;;;;;5054419;28;20041;-68
2022/06/04 08:17:12;;;;;;;4.78;3.20;;;17.40;99.90;;;;;;5054982;28;20048;-67
2022/06/04 08:19:38;;;;;;;5.50;3.53;;;17.40;99.90;;;;;;5054890;28;20040;-68
2022/06/04 08:22:06;;;;;;;6.53;3.60;;;17.50;99.90;;;;;;5054899;28;20037;-68
2022/06/04 08:24:32;;;;;;;5.03;3.38;;;17.60;99.90;;;;;;5038236;28;20413;-68
2022/06/04 08:26:59;;;;;;;5.88;3.03;;;17.80;99.90;;;;;;5054740;28;20041;-67
2022/06/04 08:29:27;;;;;;;6.57;3.58;;;17.80;99.90;;;;;;5054777;28;20048;-67
2022/06/04 08:31:53;;;;;;;7.00;3.83;;;17.80;99.90;;;;;;5054974;28;20409;-67
2022/06/04 08:34:19;;;;;;;5.13;3.78;;;17.80;99.90;;;;;;5054608;28;20041;-67
2022/06/04 08:36:44;;;;;;;7.72;3.60;;;17.80;99.90;;;;;;5055799;28;20033;-68
2022/06/04 08:39:10;;;;;;;5.63;3.30;;;17.90;99.90;;;;;;5055726;28;20436;-68
2022/06/04 08:41:48;;;;;;;6.65;3.55;;;18.10;99.90;;;;;;5054518;28;20033;-68
2022/06/04 08:44:27;;;;;;;7.70;3.60;;;18.20;99.90;;;;;;5054566;28;20123;-68
2022/06/04 08:47:40;;;;;;;5.95;3.63;;;18.20;99.90;;;;;;5037736;28;20091;-67
2022/06/04 08:50:09;;;;;;;5.22;3.45;;;18.30;99.90;;;;;;4978239;28;20049;-68
2022/06/04 08:52:39;;;;;;;5.82;3.47;;;18.30;99.90;;;;;;4978175;28;20051;-68
2022/06/04 08:58:30;;;;;;;6.07;3.80;;;18.50;99.90;;;;;;4978057;28;20050;-68
2022/06/04 09:01:04;;;;;;;6.88;4.20;;;18.40;99.90;;;;;;4978168;28;20430;-67
2022/06/04 09:04:03;;;;;;;5.75;4.25;;;18.40;99.90;;;;;;4977823;28;20472;-68
2022/06/04 09:06:42;;;;;;;5.80;3.75;;;18.30;99.90;;;;;;4977555;28;20049;-67
2022/06/04 09:09:19;;;;;;;4.72;3.50;;;18.20;99.90;;;;;;4977688;28;20042;-67
2022/06/04 09:12:07;;;;;;;7.30;4.25;;;18.20;99.90;;;;;;4977866;28;20112;-68
2022/06/04 09:14:43;;;;;;;7.43;4.35;;;18.20;99.90;;;;;;4977561;28;20050;-67
2022/06/04 09:18:06;;;;;;;7.97;4.30;;;18.20;99.90;;;;;;4977379;28;20050;-69
2022/06/04 09:20:42;;;;;;;8.90;3.95;;;18.30;99.90;;;;;;4955968;28;20495;-68
2022/06/04 09:23:41;;;;;;;5.25;3.47;;;18.30;99.90;;;;;;4984153;28;20507;-68
2022/06/04 09:26:13;;;;;;;8.55;3.85;;;18.50;99.90;;;;;;5036327;28;20040;-68
2022/06/04 09:28:53;;;;;;;5.15;3.80;;;18.70;99.90;;;;;;5053564;28;20452;-68
2022/06/04 09:31:57;;;;;;;7.38;3.90;;;18.90;99.90;;;;;;5053899;28;20049;-68
2022/06/04 09:34:36;;;;;;;6.43;4.07;;;19.10;99.90;;;;;;5053522;28;20126;-68
2022/06/04 09:37:08;;;;;;;5.78;3.75;;;19.00;99.90;;;;;;5053470;28;20052;-68
2022/06/04 09:39:36;;;;;;;6.75;4.00;;;19.10;99.90;;;;;;5053832;28;20163;-68
2022/06/04 09:42:11;;;;;;;6.22;3.42;;;19.10;99.90;;;;;;5053324;28;20041;-68
2022/06/04 09:44:47;;;;;;;4.57;3.50;;;19.20;99.90;;;;;;5053587;28;20067;-68
2022/06/04 09:47:44;;;;;;;10.00;3.90;;;19.20;99.90;;;;;;5053245;28;20052;-68
2022/06/04 09:50:32;;;;;;;5.03;3.40;;;19.40;99.90;;;;;;5037672;28;20073;-68
2022/06/04 09:53:27;;;;;;;3.97;3.05;;;19.40;99.90;;;;;;5053475;28;20037;-68
2022/06/04 09:55:59;;;;;;;5.43;3.35;;;19.50;99.90;;;;;;5053435;28;20393;-67
2022/06/04 09:58:32;;;;;;;6.78;3.60;;;19.40;99.90;;;;;;5052992;28;20049;-67
2022/06/04 10:01:06;;;;;;;8.75;3.33;;;19.40;99.90;;;;;;5053287;28;20102;-67
2022/06/04 10:03:38;;;;;;;5.82;2.95;;;19.40;99.90;;;;;;5053266;28;20132;-67
2022/06/04 10:06:11;;;;;;;6.60;3.45;;;19.50;99.90;;;;;;5053032;28;20045;-68
2022/06/04 10:11:24;;;;;;;5.90;2.67;;;19.50;99.90;;;;;;5052874;28;20369;-68
2022/06/04 10:13:52;;;;;;;6.22;2.97;;;19.60;99.90;;;;;;5053021;28;20523;-68
2022/06/04 10:16:46;;;;;;;4.63;2.70;;;19.80;99.90;;;;;;5052728;28;20076;-68
2022/06/04 10:19:20;;;;;;;6.00;2.95;;;19.90;99.90;;;;;;5052653;28;20041;-68
2022/06/04 10:21:48;;;;;;;5.55;2.85;;;20.20;99.90;;;;;;5052658;28;20037;-69
2022/06/04 10:24:23;;;;;;;7.45;2.80;;;20.60;99.90;;;;;;5052609;28;20076;-69
2022/06/04 10:26:58;;;;;;;7.05;2.83;;;21.00;99.90;;;;;;5052513;28;20037;-69
2022/06/04 10:29:37;;;;;;;3.95;2.80;;;21.30;99.20;;;;;;5036082;28;20041;-69
2022/06/04 10:32:10;;;;;;;4.78;2.70;;;21.60;97.90;;;;;;5052764;28;20049;-69
2022/06/04 10:34:42;;;;;;;5.85;2.50;;;21.80;96.00;;;;;;5052440;28;20492;-69
2022/06/04 10:37:25;;;;;;;5.22;2.63;;;22.00;98.10;;;;;;5052308;28;20084;-69
2022/06/04 10:40:20;;;;;;;4.30;2.63;;;22.20;96.70;;;;;;5052347;28;20045;-69
2022/06/04 10:43:17;;;;;;;4.30;2.53;;;22.40;94.00;;;;;;5052573;28;20025;-68
2022/06/04 10:45:52;;;;;;;4.78;2.60;;;22.30;88.00;;;;;;5052186;28;20041;-69
2022/06/04 10:48:43;;;;;;;3.72;2.03;;;22.30;90.70;;;;;;5052100;28;20052;-68
2022/06/04 10:51:28;;;;;;;4.57;2.63;;;22.20;90.50;;;;;;5035401;28;20048;-68
2022/06/04 10:54:33;;;;;;;5.25;2.47;;;22.20;90.10;;;;;;5052056;28;20116;-68
2022/06/04 10:57:29;;;;;;;4.70;1.95;;;22.20;92.20;;;;;;5052181;28;20497;-68
2022/06/04 11:00:01;;;;;;;4.93;2.20;;;22.40;90.10;;;;;;5052222;28;20153;-68
2022/06/04 11:02:45;;;;;;;4.88;2.72;;;22.70;91.90;;;;;;5052206;28;20489;-68
2022/06/04 11:05:29;;;;;;;4.13;2.20;;;23.10;84.50;;;;;;5051814;28;20041;-68
2022/06/04 11:08:09;;;;;;;3.92;2.30;;;23.30;80.80;;;;;;5051911;28;20139;-68
2022/06/04 11:10:39;;;;;;;5.20;2.55;;;23.40;78.00;;;;;;5051844;28;20365;-68
2022/06/04 11:13:14;;;;;;;3.88;1.85;;;23.30;76.00;;;;;;5052610;28;20036;-68
2022/06/04 11:16:00;;;;;;;6.85;2.00;;;23.30;75.80;;;;;;5052078;28;20044;-68
2022/06/04 11:18:33;;;;;;;4.32;1.80;;;23.30;70.10;;;;;;5051684;28;20048;-68
2022/06/04 11:21:08;;;;;;;7.10;2.50;;;23.30;74.60;;;;;;5051702;28;20108;-68
2022/06/04 11:23:49;;;;;;;5.72;2.05;;;23.30;73.40;;;;;;5051709;28;20119;-68
2022/06/04 11:26:40;;;;;;;4.65;2.28;;;23.40;72.10;;;;;;5051640;28;20511;-68
2022/06/04 11:29:08;;;;;;;6.18;2.45;;;23.50;67.40;;;;;;5051627;28;20524;-68
2022/06/04 11:32:18;;;;;;;5.18;2.40;;;23.50;72.10;;;;;;5051650;28;20041;-68
2022/06/04 11:34:50;;;;;;;18.30;3.10;;;23.70;74.80;;;;;;4975570;28;20054;-68
2022/06/04 11:37:21;;;;;;;5.88;2.00;;;23.90;73.20;;;;;;4975396;28;20042;-69
2022/06/04 11:40:18;;;;;;;5.80;2.20;;;24.00;71.80;;;;;;5018517;28;20088;-68
2022/06/04 11:43:05;;;;;;;4.70;2.03;;;24.30;71.40;;;;;;5051598;28;20090;-68
2022/06/04 11:45:39;;;;;;;4.20;2.00;;;24.50;66.20;;;;;;5051487;28;20087;-68
2022/06/04 11:48:23;;;;;;;5.07;1.95;;;24.50;66.00;;;;;;5052153;28;20124;-69
2022/06/04 11:50:58;;;;;;;5.20;1.95;;;24.40;61.20;;;;;;5055744;28;20110;-68
2022/06/04 11:53:24;;;;;;;5.38;2.00;;;24.20;64.90;;;;;;5039094;28;20045;-68
2022/06/04 11:55:59;;;;;;;3.78;1.98;;;24.00;64.00;;;;;;5055427;28;20400;-68
2022/06/04 11:58:47;;;;;;;4.18;2.10;;;23.90;62.70;;;;;;5055355;28;20041;-68
2022/06/04 12:01:18;;;;;;;2.28;1.50;;;23.70;63.90;;;;;;5056559;28;20374;-68
2022/06/04 12:03:50;;;;;;;4.80;1.77;;;23.70;64.70;;;;;;5055575;28;20041;-68
2022/06/04 12:06:15;;;;;;;4.83;1.90;;;23.80;64.60;;;;;;5057165;28;20076;-68
2022/06/04 12:08:53;;;;;;;5.25;2.10;;;23.90;65.00;;;;;;5056180;28;20076;-68
2022/06/04 12:11:41;;;;;;;4.50;2.13;;;24.00;64.50;;;;;;5055162;28;20037;-68
2022/06/04 12:14:23;;;;;;;4.18;2.03;;;24.10;62.30;;;;;;5055185;28;20413;-68
2022/06/04 12:17:10;;;;;;;4.40;2.13;;;24.10;63.90;;;;;;5055313;28;20052;-68
2022/06/04 12:25:18;;;;;;;7.25;2.17;;;24.10;65.80;;;;;;5054854;28;20048;-68
2022/06/04 12:27:56;;;;;;;7.13;2.20;;;24.10;64.70;;;;;;5054806;28;20041;-68
2022/06/04 12:30:37;;;;;;;4.78;2.15;;;24.30;61.40;;;;;;5054761;28;20052;-68
2022/06/04 12:33:22;;;;;;;4.72;1.90;;;24.50;60.10;;;;;;5055075;28;20049;-68
2022/06/04 12:36:18;;;;;;;4.80;2.03;;;24.40;63.70;;;;;;5056635;28;20051;-68
2022/06/04 12:38:46;;;;;;;7.53;2.42;;;24.60;64.70;;;;;;5054089;28;20512;-68
2022/06/04 12:41:17;;;;;;;4.38;2.00;;;24.70;65.00;;;;;;5054528;28;20041;-69
2022/06/04 12:43:54;;;;;;;4.13;1.90;;;24.80;65.70;;;;;;5054758;28;20052;-69
2022/06/04 12:46:23;;;;;;;8.93;2.30;;;24.90;64.40;;;;;;5054500;28;20155;-68
2022/06/04 12:49:15;;;;;;;4.13;2.00;;;24.90;65.00;;;;;;5054247;28;20048;-69
2022/06/04 12:51:46;;;;;;;5.65;2.47;;;24.80;63.30;;;;;;5053996;28;20421;-69
2022/06/04 12:54:25;;;;;;;5.30;2.03;;;24.70;61.90;;;;;;5054318;28;20465;-69
2022/06/04 12:57:01;;;;;;;5.20;2.22;;;24.50;62.80;;;;;;5054483;28;20049;-69
2022/06/04 12:59:48;;;;;;;5.38;2.20;;;24.40;62.10;;;;;;5053637;28;20041;-69
2022/06/04 13:02:42;;;;;;;6.45;1.88;;;24.20;60.10;;;;;;5037351;28;20513;-69
2022/06/04 13:05:16;;;;;;;5.15;2.17;;;24.10;61.90;;;;;;5054138;28;20068;-69
2022/06/04 13:08:01;;;;;;;4.55;1.98;;;24.00;62.00;;;;;;5053905;28;20043;-69
2022/06/04 13:10:54;;;;;;;4.18;1.98;;;24.00;64.50;;;;;;5054103;28;20044;-69
2022/06/04 13:13:42;;;;;;;4.80;2.30;;;24.00;66.30;;;;;;5054243;28;20505;-69
2022/06/04 13:16:28;;;;;;;4.20;2.20;;;24.00;67.80;;;;;;5053875;28;20497;-69
2022/06/04 13:19:06;;;;;;;3.78;2.00;;;24.10;69.00;;;;;;5053772;28;20440;-69
2022/06/04 13:21:33;;;;;;;3.95;2.10;;;24.00;68.80;;;;;;5053819;28;20044;-69
2022/06/04 13:24:03;;;;;;;5.00;2.10;;;24.00;69.30;;;;;;5037395;28;20493;-69
2022/06/04 13:26:36;;;;;;;5.18;2.00;;;24.00;67.00;;;;;;5053653;28;20087;-69
2022/06/04 13:29:19;;;;;;;4.60;2.20;;;23.90;67.80;;;;;;5053672;28;20083;-69
2022/06/04 13:31:51;;;;;;;4.32;2.13;;;23.80;65.80;;;;;;5053657;28;20044;-69